Time;durP1;ratioP1;P1;durP2;ratioP2;P2;SDS_P1;SDS_P2;PMS_P1;PMS_P2;Temp;Humidity;BMP_temperature;BMP_pressure;BME280_temperature;BME280_humidity;BME280_pressure;Samples;Min_cycle;Max_cycle;Signal;HPM_P1;HPM_P2
2022/06/15 00:00:45;;;;;;;5.45;3.05;;;12.70;99.90;;;;;;5017658;28;20042;-81
2022/06/15 00:03:13;;;;;;;9.05;3.28;;;12.70;99.90;;;;;;5019940;28;20448;-79
2022/06/15 00:05:39;;;;;;;9.80;4.25;;;12.60;99.90;;;;;;5024207;28;20033;-84
2022/06/15 00:08:05;;;;;;;6.97;4.40;;;12.50;99.90;;;;;;5040132;28;20061;-85
2022/06/15 00:10:32;;;;;;;7.88;4.03;;;12.50;99.90;;;;;;5018727;28;20501;-82
2022/06/15 00:12:58;;;;;;;8.20;3.55;;;12.60;99.90;;;;;;5013323;28;20073;-80
2022/06/15 00:15:24;;;;;;;10.02;3.55;;;12.40;99.90;;;;;;5014455;28;20475;-81
2022/06/15 00:17:49;;;;;;;5.65;3.63;;;12.30;99.90;;;;;;5013258;28;20038;-81
2022/06/15 00:20:15;;;;;;;4.47;3.40;;;12.30;99.90;;;;;;5013207;28;20072;-80
2022/06/15 00:22:41;;;;;;;6.97;3.20;;;12.30;99.90;;;;;;5013389;28;20481;-80
2022/06/15 00:25:09;;;;;;;7.80;3.33;;;12.20;99.90;;;;;;5013104;28;20041;-80
2022/06/15 00:27:35;;;;;;;6.35;3.80;;;12.30;99.90;;;;;;4996711;28;20042;-81
2022/06/15 00:30:02;;;;;;;5.25;3.30;;;12.30;99.90;;;;;;5013035;28;20121;-80
2022/06/15 00:32:28;;;;;;;4.90;3.13;;;12.20;99.90;;;;;;4996939;28;20092;-81
2022/06/15 00:34:54;;;;;;;6.47;3.47;;;12.20;99.90;;;;;;5014021;28;20073;-80
2022/06/15 00:37:19;;;;;;;7.75;3.78;;;12.10;99.90;;;;;;4996732;28;20140;-81
2022/06/15 00:39:45;;;;;;;6.40;3.20;;;12.10;99.90;;;;;;5014747;28;20060;-81
2022/06/15 00:42:14;;;;;;;7.50;3.72;;;11.90;99.90;;;;;;5014494;28;20107;-81
2022/06/15 00:44:40;;;;;;;6.72;3.60;;;11.90;99.90;;;;;;5014961;28;20413;-80
2022/06/15 00:47:14;;;;;;;10.23;3.30;;;11.90;99.90;;;;;;4997462;28;20034;-80
2022/06/15 00:50:02;;;;;;;5.93;3.60;;;11.90;99.90;;;;;;4996585;28;20159;-80
2022/06/15 00:52:56;;;;;;;10.05;4.80;;;11.90;99.90;;;;;;5013182;28;20045;-80
2022/06/15 00:55:25;;;;;;;7.50;3.83;;;11.90;99.90;;;;;;4996516;28;20046;-80
2022/06/15 00:57:51;;;;;;;6.70;3.83;;;11.80;99.90;;;;;;4996564;28;20044;-81
2022/06/15 01:00:18;;;;;;;9.13;4.65;;;11.80;99.90;;;;;;4995700;28;20046;-80
2022/06/15 01:02:44;;;;;;;7.82;3.47;;;11.80;99.90;;;;;;5014112;28;20042;-80
2022/06/15 01:05:20;;;;;;;9.32;4.50;;;11.80;99.90;;;;;;5012932;28;20041;-80
2022/06/15 01:08:10;;;;;;;7.82;3.67;;;11.70;99.90;;;;;;5014293;28;20148;-81
2022/06/15 01:10:42;;;;;;;6.05;4.00;;;11.70;99.90;;;;;;5013539;28;20045;-81
2022/06/15 01:13:19;;;;;;;6.95;3.95;;;11.70;99.90;;;;;;4996764;28;20440;-80
2022/06/15 01:16:11;;;;;;;8.18;4.40;;;11.70;99.90;;;;;;5012711;28;20038;-80
2022/06/15 01:18:55;;;;;;;6.97;4.03;;;11.70;99.90;;;;;;4984957;28;20100;-80
2022/06/15 01:21:39;;;;;;;6.95;4.30;;;11.70;99.90;;;;;;5012722;28;20038;-80
2022/06/15 01:24:23;;;;;;;7.07;4.03;;;11.60;99.90;;;;;;5014055;28;20042;-80
2022/06/15 01:27:07;;;;;;;5.47;4.20;;;11.60;99.90;;;;;;5012500;28;20037;-80
2022/06/15 01:30:01;;;;;;;6.45;4.05;;;11.50;99.90;;;;;;4996061;28;20483;-80
2022/06/15 01:32:45;;;;;;;5.93;4.75;;;11.50;99.90;;;;;;5012570;28;20385;-80
2022/06/15 01:35:16;;;;;;;7.60;4.13;;;11.50;99.90;;;;;;5012917;28;20489;-80
2022/06/15 01:37:48;;;;;;;9.07;3.97;;;11.50;99.90;;;;;;4996203;28;20050;-81
2022/06/15 01:40:29;;;;;;;6.75;4.20;;;11.50;99.90;;;;;;5012569;28;20044;-80
2022/06/15 01:43:03;;;;;;;8.10;4.00;;;11.40;99.90;;;;;;4996665;28;20042;-80
2022/06/15 01:45:33;;;;;;;11.27;4.65;;;11.50;99.90;;;;;;5013756;28;20460;-80
2022/06/15 01:48:02;;;;;;;10.57;4.25;;;11.50;99.90;;;;;;5012385;28;20053;-79
2022/06/15 01:50:32;;;;;;;10.23;4.30;;;11.40;99.90;;;;;;5012032;28;20042;-79
2022/06/15 01:53:31;;;;;;;10.80;4.50;;;11.40;99.90;;;;;;5012281;28;20045;-78
2022/06/15 01:56:05;;;;;;;9.52;4.10;;;11.40;99.90;;;;;;4991780;28;20111;-79
2022/06/15 01:58:35;;;;;;;12.20;4.43;;;11.30;99.90;;;;;;5012203;28;20060;-79
2022/06/15 02:01:09;;;;;;;5.88;4.25;;;11.30;99.90;;;;;;5010978;28;20049;-80
2022/06/15 02:03:44;;;;;;;9.10;4.68;;;11.30;99.90;;;;;;5010779;28;20050;-79
2022/06/15 02:06:33;;;;;;;7.85;4.50;;;11.10;99.90;;;;;;5010764;28;20054;-78
2022/06/15 02:09:28;;;;;;;7.15;3.78;;;11.20;99.90;;;;;;5012089;28;20119;-80
2022/06/15 02:11:55;;;;;;;8.55;4.53;;;11.10;99.90;;;;;;4993262;28;20389;-79
2022/06/15 02:14:26;;;;;;;8.57;4.57;;;11.00;99.90;;;;;;5011998;28;20040;-79
2022/06/15 02:17:07;;;;;;;8.68;4.40;;;11.10;99.90;;;;;;5011916;28;20088;-79
2022/06/15 02:19:39;;;;;;;11.82;4.45;;;11.10;99.90;;;;;;5010273;28;20045;-80
2022/06/15 02:22:13;;;;;;;6.45;4.35;;;11.10;99.90;;;;;;5012105;28;20071;-79
2022/06/15 02:24:40;;;;;;;7.22;3.80;;;11.00;99.90;;;;;;4994382;28;20065;-79
2022/06/15 02:27:08;;;;;;;6.68;4.28;;;11.00;99.90;;;;;;5010418;28;20461;-79
2022/06/15 02:29:37;;;;;;;13.18;4.65;;;10.90;99.90;;;;;;5010106;28;20041;-79
2022/06/15 02:32:10;;;;;;;9.70;4.15;;;11.00;99.90;;;;;;5011545;28;20657;-78
2022/06/15 02:34:37;;;;;;;8.27;5.55;;;10.90;99.90;;;;;;5010600;28;20042;-79
2022/06/15 02:37:04;;;;;;;8.45;5.00;;;10.90;99.90;;;;;;4994003;28;20409;-78
2022/06/15 02:39:30;;;;;;;7.63;4.40;;;10.90;99.90;;;;;;4993976;28;20060;-79
2022/06/15 02:42:20;;;;;;;8.90;4.65;;;10.90;99.90;;;;;;4993808;28;20050;-80
2022/06/15 02:44:48;;;;;;;11.65;4.78;;;11.00;99.90;;;;;;5010556;28;20096;-79
2022/06/15 02:47:15;;;;;;;6.85;4.55;;;10.90;99.90;;;;;;5011526;28;20045;-78
2022/06/15 02:49:40;;;;;;;9.68;5.07;;;10.90;99.90;;;;;;5010109;28;20089;-79
2022/06/15 02:52:09;;;;;;;7.95;4.95;;;10.90;99.90;;;;;;5010117;28;20516;-80
2022/06/15 02:54:48;;;;;;;8.70;4.15;;;10.90;99.90;;;;;;5010028;28;20046;-79
2022/06/15 02:57:15;;;;;;;13.10;4.85;;;10.90;99.90;;;;;;5010341;28;20042;-79
2022/06/15 02:59:41;;;;;;;7.50;4.30;;;10.90;99.90;;;;;;5009843;28;20038;-79
2022/06/15 03:02:07;;;;;;;11.10;5.10;;;10.90;99.90;;;;;;5011212;28;20303;-79
2022/06/15 03:04:33;;;;;;;9.30;4.75;;;10.90;99.90;;;;;;5011207;28;20038;-79
2022/06/15 03:06:59;;;;;;;7.47;4.15;;;10.90;99.90;;;;;;5010277;28;20042;-79
2022/06/15 03:09:24;;;;;;;9.07;5.15;;;10.90;99.90;;;;;;5011168;28;20046;-78
2022/06/15 03:11:50;;;;;;;9.38;6.05;;;10.90;99.90;;;;;;5011164;28;20042;-78
2022/06/15 03:14:17;;;;;;;10.20;4.65;;;10.90;99.90;;;;;;5011434;28;20052;-78
2022/06/15 03:16:43;;;;;;;7.57;5.15;;;10.90;99.90;;;;;;5029648;28;20033;-81
2022/06/15 03:19:12;;;;;;;9.80;5.00;;;10.90;99.90;;;;;;5035655;28;20053;-80
2022/06/15 03:21:38;;;;;;;9.32;4.60;;;10.80;99.90;;;;;;5011054;28;20087;-81
2022/06/15 03:24:05;;;;;;;10.88;5.30;;;10.90;99.90;;;;;;5015879;28;20034;-81
2022/06/15 03:26:31;;;;;;;10.52;5.38;;;10.80;99.90;;;;;;5016399;28;20049;-81
2022/06/15 03:28:56;;;;;;;10.63;6.55;;;10.90;99.90;;;;;;5015934;28;20038;-82
2022/06/15 03:31:22;;;;;;;9.02;5.00;;;11.00;99.90;;;;;;5014061;28;20081;-82
2022/06/15 03:33:48;;;;;;;10.90;4.90;;;10.80;99.90;;;;;;5013873;28;20045;-82
2022/06/15 03:36:14;;;;;;;8.00;5.40;;;10.90;99.90;;;;;;5015552;28;20069;-82
2022/06/15 03:38:39;;;;;;;9.32;5.20;;;11.00;99.90;;;;;;5015240;28;20044;-80
2022/06/15 03:41:05;;;;;;;6.88;4.95;;;10.80;99.90;;;;;;4997309;28;20041;-82
2022/06/15 03:43:31;;;;;;;8.52;5.15;;;10.90;99.90;;;;;;5015743;28;20448;-81
2022/06/15 03:45:57;;;;;;;8.85;5.10;;;10.80;99.90;;;;;;5014617;28;20053;-82
2022/06/15 03:48:23;;;;;;;8.43;4.75;;;10.80;99.90;;;;;;5015111;28;20409;-81
2022/06/15 03:50:49;;;;;;;10.02;5.65;;;10.90;99.90;;;;;;5013626;28;20069;-81
2022/06/15 03:53:15;;;;;;;10.25;5.30;;;10.90;99.90;;;;;;5014850;28;20425;-81
2022/06/15 03:55:43;;;;;;;10.00;5.63;;;11.00;99.90;;;;;;5015864;28;20096;-82
2022/06/15 03:58:12;;;;;;;9.10;5.03;;;11.00;99.90;;;;;;5014874;28;20045;-81
2022/06/15 04:00:37;;;;;;;8.93;4.97;;;11.00;99.90;;;;;;5015697;28;20053;-81
2022/06/15 04:03:03;;;;;;;9.43;4.88;;;10.90;99.90;;;;;;5013839;28;20079;-81
2022/06/15 04:05:35;;;;;;;10.60;5.13;;;11.10;99.90;;;;;;5013733;28;20042;-81
2022/06/15 04:10:45;;;;;;;12.20;5.50;;;11.10;99.90;;;;;;5036411;28;20037;-81
2022/06/15 04:13:12;;;;;;;14.20;5.88;;;11.20;99.90;;;;;;5023907;28;20108;-81
2022/06/15 04:15:37;;;;;;;9.65;5.43;;;11.20;99.90;;;;;;5014332;28;20507;-82
2022/06/15 04:18:03;;;;;;;10.57;5.40;;;11.30;99.90;;;;;;5013468;28;20156;-82
2022/06/15 04:20:32;;;;;;;8.23;5.45;;;11.20;99.90;;;;;;5014484;28;20088;-81
2022/06/15 04:23:02;;;;;;;12.20;5.28;;;11.30;99.90;;;;;;4996685;28;20042;-81
2022/06/15 04:25:30;;;;;;;9.70;5.28;;;11.30;99.90;;;;;;5013310;28;20084;-81
2022/06/15 04:27:56;;;;;;;8.93;6.05;;;11.30;99.90;;;;;;5013026;28;20405;-81
2022/06/15 04:30:22;;;;;;;12.23;5.22;;;11.40;99.90;;;;;;5012442;28;20045;-82
2022/06/15 04:32:48;;;;;;;15.50;5.70;;;11.50;99.90;;;;;;5012839;28;20397;-81
2022/06/15 04:35:15;;;;;;;10.85;5.50;;;11.50;99.90;;;;;;4996025;28;20073;-81
2022/06/15 04:37:40;;;;;;;55.80;26.95;;;11.50;99.90;;;;;;5012974;28;20092;-82
2022/06/15 04:40:07;;;;;;;28.05;14.07;;;11.60;99.90;;;;;;4995904;28;20472;-81
2022/06/15 04:42:35;;;;;;;20.27;8.90;;;11.70;99.90;;;;;;4996101;28;20541;-81
2022/06/15 04:45:00;;;;;;;17.60;6.38;;;11.80;99.90;;;;;;5012175;28;20061;-82
2022/06/15 04:47:26;;;;;;;14.18;6.57;;;11.90;99.90;;;;;;5012237;28;20041;-82
2022/06/15 04:49:51;;;;;;;11.65;5.72;;;11.90;99.90;;;;;;5012153;28;20038;-81
2022/06/15 04:52:17;;;;;;;11.02;5.72;;;12.00;99.90;;;;;;5012468;28;20085;-81
2022/06/15 04:54:42;;;;;;;12.70;5.85;;;12.30;99.90;;;;;;5012378;28;20093;-82
2022/06/15 04:57:08;;;;;;;11.73;5.10;;;12.50;99.90;;;;;;5013798;28;20044;-82
2022/06/15 04:59:34;;;;;;;11.25;5.30;;;12.60;99.90;;;;;;4995396;28;20174;-82
2022/06/15 05:01:59;;;;;;;11.70;5.55;;;12.80;99.90;;;;;;5011922;28;20349;-82
2022/06/15 05:04:28;;;;;;;15.57;7.60;;;13.00;99.90;;;;;;5012078;28;20494;-77
2022/06/15 05:06:53;;;;;;;30.77;13.45;;;13.40;99.90;;;;;;5011823;28;20072;-82
2022/06/15 05:09:19;;;;;;;13.40;7.55;;;13.90;99.90;;;;;;5011739;28;20092;-83
2022/06/15 05:11:45;;;;;;;11.13;5.95;;;14.40;99.90;;;;;;5011710;28;20034;-82
2022/06/15 05:14:11;;;;;;;10.88;6.50;;;15.00;99.90;;;;;;5011646;28;20041;-82
2022/06/15 05:16:37;;;;;;;21.80;13.60;;;15.50;99.90;;;;;;5011564;28;20061;-83
2022/06/15 05:19:04;;;;;;;11.23;5.68;;;16.00;99.90;;;;;;5011549;28;20053;-82
2022/06/15 05:21:30;;;;;;;15.15;6.90;;;16.30;99.90;;;;;;5011639;28;20046;-82
2022/06/15 05:23:56;;;;;;;11.48;6.03;;;16.60;99.90;;;;;;5011533;28;20050;-82
2022/06/15 05:26:25;;;;;;;10.20;5.13;;;16.90;99.90;;;;;;5012185;28;20053;-82
2022/06/15 05:28:51;;;;;;;9.32;4.55;;;17.30;99.90;;;;;;5011320;28;20409;-82
2022/06/15 05:31:21;;;;;;;8.80;4.43;;;17.60;99.90;;;;;;5011018;28;20048;-82
2022/06/15 05:33:53;;;;;;;9.93;4.72;;;17.80;99.90;;;;;;5011708;28;20444;-81
2022/06/15 05:36:20;;;;;;;8.90;5.00;;;17.90;99.90;;;;;;5011322;28;20078;-81
2022/06/15 05:38:46;;;;;;;11.63;5.05;;;18.20;99.90;;;;;;5011553;28;20077;-82
2022/06/15 05:41:12;;;;;;;8.00;5.15;;;18.50;99.90;;;;;;5011289;28;20079;-82
2022/06/15 05:43:51;;;;;;;9.20;4.97;;;18.60;99.90;;;;;;5011928;28;20045;-82
2022/06/15 05:46:26;;;;;;;8.00;4.80;;;18.70;99.90;;;;;;4994838;28;20594;-82
2022/06/15 05:48:54;;;;;;;7.72;5.00;;;18.90;99.90;;;;;;4995122;28;20045;-82
2022/06/15 05:51:20;;;;;;;5.82;4.20;;;19.10;99.90;;;;;;4994771;28;20438;-81
2022/06/15 05:53:47;;;;;;;9.48;4.68;;;19.30;99.90;;;;;;4978934;28;20057;-82
2022/06/15 05:56:13;;;;;;;7.43;4.40;;;19.30;99.90;;;;;;4994798;28;20080;-81
2022/06/15 05:58:39;;;;;;;9.55;4.95;;;19.30;99.90;;;;;;4994771;28;20133;-81
2022/06/15 06:01:21;;;;;;;7.78;4.72;;;19.40;99.90;;;;;;4994913;28;20128;-81
2022/06/15 06:03:46;;;;;;;;;;;19.50;99.90;;;;;;4994932;28;20125;-81
2022/06/15 06:06:12;;;;;;;9.98;4.90;;;19.70;99.90;;;;;;4994854;28;20000;-81
2022/06/15 06:08:38;;;;;;;7.35;4.72;;;19.90;99.90;;;;;;4994962;28;20073;-81
2022/06/15 06:11:03;;;;;;;6.55;4.50;;;19.90;99.90;;;;;;5011192;28;20034;-82
2022/06/15 06:13:29;;;;;;;7.82;4.43;;;20.20;99.90;;;;;;5012077;28;20042;-81
2022/06/15 06:15:56;;;;;;;7.43;4.32;;;20.30;99.90;;;;;;5010951;28;20073;-81
2022/06/15 06:18:23;;;;;;;8.70;4.88;;;20.40;99.90;;;;;;5011434;28;20053;-81
2022/06/15 06:20:49;;;;;;;9.25;5.03;;;20.60;99.90;;;;;;5011746;28;20053;-81
2022/06/15 06:23:14;;;;;;;11.65;4.78;;;20.90;99.90;;;;;;4994053;28;20046;-80
2022/06/15 06:25:42;;;;;;;5.70;4.30;;;21.10;99.90;;;;;;5011930;28;20051;-79
2022/06/15 06:28:35;;;;;;;8.18;4.47;;;21.40;99.90;;;;;;5010670;28;20046;-79
2022/06/15 06:31:03;;;;;;;10.65;4.10;;;21.60;99.90;;;;;;4993945;28;20041;-81
2022/06/15 06:33:31;;;;;;;10.43;4.28;;;21.70;99.90;;;;;;4994344;28;20385;-81
2022/06/15 06:35:59;;;;;;;5.82;4.45;;;21.90;99.90;;;;;;4994164;28;20033;-82
2022/06/15 06:38:25;;;;;;;7.05;4.45;;;22.00;99.90;;;;;;4994195;28;20081;-81
2022/06/15 06:40:54;;;;;;;10.45;4.13;;;22.20;99.90;;;;;;5010484;28;20501;-80
2022/06/15 06:43:20;;;;;;;6.20;4.15;;;22.40;99.90;;;;;;4994077;28;20505;-80
2022/06/15 06:45:46;;;;;;;5.10;3.50;;;22.40;99.90;;;;;;4994108;28;20068;-81
2022/06/15 06:48:12;;;;;;;10.77;4.38;;;22.40;99.90;;;;;;4993724;28;20490;-80
2022/06/15 06:50:40;;;;;;;6.38;3.40;;;22.60;99.90;;;;;;4993809;28;20056;-81
2022/06/15 06:53:09;;;;;;;5.72;3.50;;;22.40;99.90;;;;;;4994299;28;20090;-80
2022/06/15 06:55:35;;;;;;;4.05;3.20;;;22.50;99.90;;;;;;5011680;28;20128;-81
2022/06/15 06:58:01;;;;;;;10.90;3.92;;;22.60;99.90;;;;;;5009961;28;20120;-81
2022/06/15 07:00:29;;;;;;;5.60;3.47;;;22.60;99.90;;;;;;4993610;28;20112;-80
2022/06/15 07:02:55;;;;;;;5.30;2.88;;;22.70;99.90;;;;;;4993933;28;20046;-81
2022/06/15 07:05:21;;;;;;;8.55;3.80;;;22.90;99.90;;;;;;5011422;28;20030;-81
2022/06/15 07:07:46;;;;;;;4.85;2.75;;;23.10;99.90;;;;;;4993956;28;20038;-80
2022/06/15 07:10:14;;;;;;;6.57;3.15;;;23.40;99.90;;;;;;5011119;28;20064;-81
2022/06/15 07:12:42;;;;;;;7.47;3.35;;;23.50;99.90;;;;;;5011341;28;20563;-81
2022/06/15 07:15:12;;;;;;;8.45;3.40;;;23.70;99.90;;;;;;5009809;28;20485;-81
2022/06/15 07:17:39;;;;;;;6.57;2.90;;;24.00;99.30;;;;;;5010304;28;20045;-81
2022/06/15 07:20:05;;;;;;;9.82;3.40;;;24.30;98.50;;;;;;4993223;28;20042;-81
2022/06/15 07:22:31;;;;;;;6.90;2.83;;;24.30;96.60;;;;;;4993419;28;20086;-81
2022/06/15 07:24:56;;;;;;;5.15;2.72;;;24.20;96.80;;;;;;5011348;28;20100;-80
2022/06/15 07:27:23;;;;;;;6.68;2.75;;;24.30;96.60;;;;;;5011052;28;20049;-80
2022/06/15 07:29:49;;;;;;;6.90;2.65;;;24.30;96.00;;;;;;5009646;28;20566;-81
2022/06/15 07:32:17;;;;;;;7.95;3.15;;;24.30;95.00;;;;;;5011413;28;20080;-80
2022/06/15 07:34:43;;;;;;;5.43;2.60;;;24.30;94.00;;;;;;5009829;28;20049;-81
2022/06/15 07:37:10;;;;;;;7.03;2.65;;;24.30;94.80;;;;;;5011053;28;20087;-80
2022/06/15 07:39:37;;;;;;;3.72;2.05;;;24.40;93.90;;;;;;5011048;28;20045;-81
2022/06/15 07:42:07;;;;;;;5.35;2.22;;;24.40;95.20;;;;;;4993530;28;20041;-81
2022/06/15 07:44:34;;;;;;;5.38;2.38;;;24.60;93.50;;;;;;4993171;28;20524;-80
2022/06/15 07:49:56;;;;;;;5.55;2.30;;;24.80;92.70;;;;;;5010757;28;20150;-80
2022/06/15 07:52:32;;;;;;;5.13;2.10;;;24.90;91.60;;;;;;5009931;28;20108;-81
2022/06/15 07:54:59;;;;;;;9.27;2.60;;;24.80;88.70;;;;;;5010832;28;20038;-81
2022/06/15 07:57:24;;;;;;;3.35;1.33;;;24.70;91.60;;;;;;5009901;28;20060;-82
2022/06/15 07:59:50;;;;;;;5.45;1.67;;;24.80;89.90;;;;;;4995055;28;20045;-78
2022/06/15 08:02:17;;;;;;;6.35;1.92;;;24.80;83.80;;;;;;5014584;28;20042;-78
2022/06/15 08:04:43;;;;;;;4.57;2.15;;;24.70;82.60;;;;;;5026155;28;20070;-79
2022/06/15 08:07:11;;;;;;;5.53;2.17;;;24.70;84.90;;;;;;5007901;28;20049;-80
2022/06/15 08:09:37;;;;;;;5.72;1.80;;;24.90;81.50;;;;;;4995340;28;20050;-80
2022/06/15 08:12:12;;;;;;;5.47;1.58;;;25.00;79.50;;;;;;5013021;28;20053;-80
2022/06/15 08:14:42;;;;;;;3.55;1.70;;;25.00;77.60;;;;;;5014154;28;20037;-81
2022/06/15 08:17:13;;;;;;;4.53;1.58;;;25.00;74.90;;;;;;5012855;28;20078;-81
2022/06/15 08:19:44;;;;;;;4.40;0.88;;;25.20;77.10;;;;;;5013596;28;20073;-81
2022/06/15 08:22:10;;;;;;;5.05;1.10;;;25.20;70.60;;;;;;4996494;28;20038;-79
2022/06/15 08:24:37;;;;;;;4.00;0.90;;;25.20;70.20;;;;;;5012590;28;20049;-81
2022/06/15 08:27:04;;;;;;;4.00;1.08;;;25.40;68.20;;;;;;4996349;28;20057;-81
2022/06/15 08:29:31;;;;;;;2.78;1.13;;;25.50;69.20;;;;;;4996196;28;20050;-78
2022/06/15 08:31:57;;;;;;;2.63;1.15;;;25.60;66.00;;;;;;5012721;28;20052;-82
2022/06/15 08:34:28;;;;;;;3.40;1.35;;;25.50;64.10;;;;;;5012292;28;20033;-81
2022/06/15 08:36:55;;;;;;;2.40;1.08;;;25.40;63.60;;;;;;4996540;28;20068;-81
2022/06/15 08:39:21;;;;;;;4.80;1.52;;;25.40;67.10;;;;;;5013701;28;20045;-80
2022/06/15 08:41:52;;;;;;;6.00;1.85;;;25.40;64.60;;;;;;5013409;28;20037;-81
2022/06/15 08:44:46;;;;;;;3.22;1.27;;;25.30;65.70;;;;;;5012290;28;20501;-80
2022/06/15 08:47:17;;;;;;;4.50;1.05;;;25.40;57.80;;;;;;5013649;28;20049;-82
2022/06/15 08:50:07;;;;;;;3.00;1.08;;;24.70;63.10;;;;;;5011742;28;20050;-70
2022/06/15 08:52:40;;;;;;;1.95;1.10;;;24.10;60.00;;;;;;5025477;28;20397;-69
2022/06/15 08:55:21;;;;;;;3.30;1.20;;;23.40;62.10;;;;;;5031569;28;20045;-69
2022/06/15 08:57:56;;;;;;;5.30;1.60;;;23.10;66.20;;;;;;5030601;28;20045;-69
2022/06/15 09:00:37;;;;;;;3.38;1.20;;;22.80;65.90;;;;;;5029428;28;20038;-82
2022/06/15 09:03:37;;;;;;;5.75;1.20;;;23.00;64.00;;;;;;5031746;28;20053;-81
2022/06/15 09:06:05;;;;;;;5.80;1.30;;;22.90;66.40;;;;;;5032293;28;20049;-81
2022/06/15 09:09:01;;;;;;;2.72;1.10;;;23.10;68.80;;;;;;5014996;28;20075;-81
2022/06/15 09:11:48;;;;;;;4.38;1.30;;;23.40;67.40;;;;;;5014806;28;20439;-81
2022/06/15 09:14:37;;;;;;;5.40;1.20;;;23.70;67.90;;;;;;5015177;28;20091;-81
2022/06/15 09:17:15;;;;;;;4.70;1.40;;;24.00;66.00;;;;;;5031909;28;20111;-81
2022/06/15 09:19:56;;;;;;;4.85;1.15;;;24.20;62.60;;;;;;5014194;28;20404;-80
2022/06/15 09:22:27;;;;;;;3.30;1.23;;;24.40;65.00;;;;;;5014969;28;20045;-81
2022/06/15 09:25:00;;;;;;;2.72;1.65;;;24.40;66.30;;;;;;5032054;28;20463;-79
2022/06/15 09:27:49;;;;;;;3.05;1.20;;;24.50;64.80;;;;;;5033287;28;20570;-81
2022/06/15 09:30:22;;;;;;;2.33;1.15;;;24.40;62.60;;;;;;5014762;28;20500;-81
2022/06/15 09:32:56;;;;;;;3.80;2.20;;;24.50;64.30;;;;;;5033214;28;20037;-81
2022/06/15 09:35:48;;;;;;;4.45;1.67;;;24.30;63.80;;;;;;5014850;28;20045;-79
2022/06/15 09:38:15;;;;;;;4.25;1.30;;;24.20;65.30;;;;;;5025677;28;20085;-81
2022/06/15 09:40:51;;;;;;;2.45;1.42;;;24.10;68.90;;;;;;5014761;28;20037;-80
2022/06/15 09:43:29;;;;;;;3.70;1.20;;;24.00;67.40;;;;;;5031607;28;20396;-81
2022/06/15 09:46:19;;;;;;;6.30;1.73;;;24.30;67.20;;;;;;5031396;28;20030;-81
2022/06/15 09:49:10;;;;;;;4.05;1.40;;;24.60;63.90;;;;;;5014433;28;20052;-81
2022/06/15 09:51:56;;;;;;;2.00;1.10;;;24.80;67.30;;;;;;4995898;28;20409;-80
2022/06/15 09:54:21;;;;;;;2.80;1.25;;;25.00;63.70;;;;;;5015559;28;20050;-79
2022/06/15 09:56:49;;;;;;;2.40;1.23;;;25.30;64.90;;;;;;5039847;28;20063;-82
2022/06/15 09:59:18;;;;;;;4.20;1.30;;;25.50;60.00;;;;;;5022002;28;20041;-82
2022/06/15 10:01:45;;;;;;;7.20;1.80;;;25.60;59.00;;;;;;5016788;28;20042;-74
2022/06/15 10:04:27;;;;;;;3.20;1.88;;;25.40;60.00;;;;;;5028744;28;20041;-74
2022/06/15 10:07:08;;;;;;;2.97;1.23;;;25.40;59.00;;;;;;5028874;28;20484;-81
2022/06/15 10:09:39;;;;;;;4.50;1.00;;;25.40;60.00;;;;;;5006880;28;20045;-81
2022/06/15 10:15:15;;;;;;;5.85;1.45;;;25.40;57.30;;;;;;5030843;28;20054;-80
2022/06/15 10:17:46;;;;;;;2.13;1.10;;;25.30;59.00;;;;;;5014854;28;20048;-82
2022/06/15 10:20:32;;;;;;;;;;;25.30;57.60;;;;;;5014726;28;20094;-81
2022/06/15 10:23:00;;;;;;;3.03;1.17;;;25.20;58.20;;;;;;5015239;28;19917;-79
2022/06/15 10:25:29;;;;;;;2.67;1.25;;;25.40;56.60;;;;;;5014306;28;20037;-80
2022/06/15 10:28:12;;;;;;;4.55;1.40;;;25.20;57.90;;;;;;5014066;28;20053;-80
2022/06/15 10:30:50;;;;;;;5.03;1.42;;;25.40;57.00;;;;;;5014071;28;20041;-80
2022/06/15 10:33:19;;;;;;;4.57;1.13;;;25.50;56.30;;;;;;5029427;28;20132;-81
2022/06/15 10:35:55;;;;;;;4.45;1.25;;;25.50;56.30;;;;;;5029716;28;20041;-82
2022/06/15 10:38:21;;;;;;;7.22;1.40;;;25.60;56.20;;;;;;5030062;28;20131;-82
2022/06/15 10:40:55;;;;;;;3.67;1.40;;;25.60;56.50;;;;;;5031569;28;20481;-81
2022/06/15 10:43:29;;;;;;;2.97;1.30;;;25.50;55.00;;;;;;5031715;28;20448;-81
2022/06/15 10:46:02;;;;;;;8.50;1.52;;;25.40;56.40;;;;;;5013504;28;20493;-82
2022/06/15 10:48:35;;;;;;;2.25;1.50;;;25.30;55.80;;;;;;5013442;28;20053;-81
2022/06/15 10:51:07;;;;;;;3.25;1.50;;;25.30;56.90;;;;;;5013023;28;20045;-82
2022/06/15 10:53:50;;;;;;;3.85;1.00;;;25.40;56.50;;;;;;5029852;28;20124;-81
2022/06/15 11:02:37;;;;;;;4.75;1.48;;;25.70;56.60;;;;;;5030359;28;20447;-81
2022/06/15 11:05:08;;;;;;;5.03;1.25;;;25.60;56.20;;;;;;5031794;28;20055;-82
2022/06/15 11:07:45;;;;;;;7.57;1.73;;;25.40;56.40;;;;;;5030663;28;20480;-81
2022/06/15 11:10:31;;;;;;;4.22;1.15;;;25.20;56.10;;;;;;5013142;28;20411;-82
2022/06/15 11:12:57;;;;;;;4.05;1.40;;;25.10;57.50;;;;;;5030257;28;20423;-80
2022/06/15 11:18:57;;;;;;;6.68;1.67;;;25.00;57.20;;;;;;5031021;28;20060;-82
2022/06/15 11:21:28;;;;;;;2.45;1.30;;;25.00;60.60;;;;;;5030249;28;20500;-81
2022/06/15 11:24:25;;;;;;;3.83;1.30;;;25.20;57.90;;;;;;5030781;28;20396;-81
2022/06/15 11:27:18;;;;;;;3.53;1.50;;;25.40;56.00;;;;;;5013249;28;20401;-83
2022/06/15 11:29:57;;;;;;;7.47;1.60;;;25.70;56.80;;;;;;5030357;28;20441;-82
2022/06/15 11:32:31;;;;;;;3.20;1.17;;;25.50;56.10;;;;;;5013172;28;20041;-81
2022/06/15 11:35:11;;;;;;;8.50;1.35;;;25.70;57.60;;;;;;5029338;28;20136;-82
2022/06/15 11:37:57;;;;;;;1.92;1.20;;;25.80;55.50;;;;;;5029496;28;20568;-81
2022/06/15 11:40:31;;;;;;;4.53;1.52;;;25.80;55.30;;;;;;5029635;28;20100;-82
2022/06/15 11:43:00;;;;;;;4.57;1.60;;;25.80;54.80;;;;;;5013664;28;20045;-81
2022/06/15 11:45:34;;;;;;;3.97;1.33;;;25.70;55.80;;;;;;5034745;28;20127;-81
2022/06/15 11:48:53;;;;;;;4.63;1.65;;;25.90;55.40;;;;;;5032885;28;20045;-82
2022/06/15 11:51:48;;;;;;;6.20;1.80;;;26.10;53.80;;;;;;4995562;28;20048;-82
2022/06/15 11:54:19;;;;;;;2.00;1.35;;;26.10;53.70;;;;;;4995795;28;20543;-83
2022/06/15 11:57:02;;;;;;;;;;;26.20;55.70;;;;;;5030280;28;20057;-82
2022/06/15 11:59:54;;;;;;;4.43;1.40;;;26.20;55.60;;;;;;5032795;28;20419;-82
2022/06/15 12:02:32;;;;;;;4.70;1.80;;;26.10;55.30;;;;;;5032742;28;20042;-83
2022/06/15 12:05:32;;;;;;;3.63;1.50;;;26.10;55.00;;;;;;5016218;28;20049;-81
2022/06/15 12:08:09;;;;;;;3.05;1.73;;;26.00;55.30;;;;;;5032983;28;20294;-82
2022/06/15 12:10:50;;;;;;;4.97;1.70;;;25.70;51.80;;;;;;5033707;28;20087;-82
2022/06/15 12:13:18;;;;;;;3.37;1.57;;;25.60;55.20;;;;;;5033903;28;20103;-84
2022/06/15 12:15:50;;;;;;;2.75;1.35;;;25.70;56.70;;;;;;5034060;28;20276;-82
2022/06/15 12:18:23;;;;;;;;;;;25.70;56.60;;;;;;5034713;28;20141;-77
2022/06/15 12:21:04;;;;;;;3.35;1.30;;;25.60;56.40;;;;;;5034413;28;19917;-82
2022/06/15 12:24:10;;;;;;;3.85;1.60;;;25.40;55.70;;;;;;5033339;28;20052;-82
2022/06/15 12:26:52;;;;;;;3.40;1.42;;;25.10;54.40;;;;;;5025109;28;20063;-82
2022/06/15 12:29:41;;;;;;;3.45;1.63;;;25.10;55.80;;;;;;5032700;28;20473;-82
2022/06/15 12:32:38;;;;;;;2.38;1.50;;;25.30;56.10;;;;;;5015968;28;20092;-83
2022/06/15 12:35:17;;;;;;;4.47;1.48;;;25.50;56.20;;;;;;5032470;28;20393;-81
2022/06/15 12:37:57;;;;;;;2.13;1.70;;;25.70;58.40;;;;;;5033459;28;20113;-82
2022/06/15 12:40:55;;;;;;;3.33;1.80;;;25.90;58.30;;;;;;5032065;28;20049;-81
2022/06/15 12:43:36;;;;;;;4.97;1.65;;;26.00;57.60;;;;;;5031731;28;20099;-81
2022/06/15 12:46:16;;;;;;;5.07;1.65;;;25.90;57.00;;;;;;5032151;28;20045;-82
2022/06/15 12:48:58;;;;;;;2.67;1.67;;;25.80;57.20;;;;;;5033440;28;20051;-82
2022/06/15 12:51:44;;;;;;;6.03;2.13;;;25.70;57.60;;;;;;5033107;28;20140;-82
2022/06/15 12:54:26;;;;;;;4.20;1.80;;;25.70;57.20;;;;;;5031791;28;20049;-81
2022/06/15 12:57:07;;;;;;;3.25;1.65;;;25.80;56.30;;;;;;5014850;28;20057;-82
2022/06/15 12:59:50;;;;;;;6.47;1.70;;;25.90;55.10;;;;;;5032899;28;20508;-83
2022/06/15 13:02:37;;;;;;;4.32;1.60;;;25.90;55.40;;;;;;5042780;28;20049;-79
2022/06/15 13:05:09;;;;;;;3.00;1.45;;;25.90;57.80;;;;;;5053006;28;20049;-82
2022/06/15 13:07:41;;;;;;;4.13;1.83;;;25.80;57.40;;;;;;5052092;28;20420;-80
2022/06/15 13:10:07;;;;;;;3.22;1.60;;;25.80;56.40;;;;;;5050893;28;20072;-82
2022/06/15 13:12:40;;;;;;;3.15;1.80;;;25.90;56.60;;;;;;5033005;28;20109;-82
2022/06/15 13:15:16;;;;;;;5.35;1.70;;;25.80;54.80;;;;;;5031411;28;20072;-82
2022/06/15 13:18:14;;;;;;;4.25;1.80;;;25.90;54.70;;;;;;5032400;28;20037;-84
2022/06/15 13:20:58;;;;;;;5.05;1.83;;;26.00;54.20;;;;;;5032568;28;20072;-81
2022/06/15 13:23:28;;;;;;;8.02;1.90;;;26.10;54.50;;;;;;5031322;28;20045;-82
2022/06/15 13:26:02;;;;;;;3.63;1.27;;;26.10;55.00;;;;;;5014751;28;20056;-80
2022/06/15 13:28:31;;;;;;;3.35;1.25;;;26.20;54.00;;;;;;5032654;28;20045;-82
2022/06/15 13:31:05;;;;;;;2.85;1.50;;;26.20;53.90;;;;;;5031053;28;20587;-82